Time;durP1;ratioP1;P1;durP2;ratioP2;P2;SDS_P1;SDS_P2;PMS_P1;PMS_P2;Temp;Humidity;BMP_temperature;BMP_pressure;BME280_temperature;BME280_humidity;BME280_pressure;Samples;Min_cycle;Max_cycle;Signal;HPM_P1;HPM_P2
2022/12/07 00:01:35;;;;;;;28.98;17.90;;;;;;;;;;5012374;28;20019;-74
2022/12/07 00:04:05;;;;;;;29.63;18.48;;;;;;;;;;5013894;28;20034;-74
2022/12/07 00:06:36;;;;;;;35.05;19.42;;;;;;;;;;5009881;28;20054;-74
2022/12/07 00:09:02;;;;;;;33.38;18.33;;;;;;;;;;5011522;28;20022;-76
2022/12/07 00:11:28;;;;;;;33.28;18.90;;;;;;;;;;5011182;28;20070;-74
2022/12/07 00:13:55;;;;;;;31.25;18.23;;;;;;;;;;5012775;28;20038;-74
2022/12/07 00:16:22;;;;;;;28.30;17.77;;;;;;;;;;5009440;28;20041;-74
2022/12/07 00:18:48;;;;;;;30.88;18.75;;;;;;;;;;5014985;28;20038;-74
2022/12/07 00:21:16;;;;;;;30.90;18.83;;;;;;;;;;5013182;28;20033;-75
2022/12/07 00:23:43;;;;;;;31.80;19.42;;;;;;;;;;5014908;28;20082;-74
2022/12/07 00:26:32;;;;;;;37.42;18.65;;;;;;;;;;5012624;28;20030;-74
2022/12/07 00:28:59;;;;;;;29.23;18.58;;;;;;;;;;5002048;28;20049;-74
2022/12/07 00:31:26;;;;;;;34.13;19.77;;;;;;;;;;5011861;28;20030;-76
2022/12/07 00:33:53;;;;;;;33.95;19.70;;;;;;;;;;5015679;28;20023;-74
2022/12/07 00:36:20;;;;;;;36.60;19.85;;;;;;;;;;5015615;28;20031;-74
2022/12/07 00:38:46;;;;;;;34.85;18.70;;;;;;;;;;5015309;28;20082;-74
2022/12/07 00:41:16;;;;;;;36.90;18.75;;;;;;;;;;5013183;28;20088;-75
2022/12/07 00:43:44;;;;;;;31.38;18.23;;;;;;;;;;5015452;28;20026;-75
2022/12/07 00:46:10;;;;;;;29.92;18.23;;;;;;;;;;5017624;28;20058;-75
2022/12/07 00:48:36;;;;;;;31.95;17.52;;;;;;;;;;5015959;28;20049;-75
2022/12/07 00:51:02;;;;;;;29.23;17.48;;;;;;;;;;5017695;28;20078;-75
2022/12/07 00:53:28;;;;;;;29.75;18.20;;;;;;;;;;5001391;28;20030;-75
2022/12/07 00:55:55;;;;;;;30.45;17.67;;;;;;;;;;4993990;28;20022;-74
2022/12/07 00:58:22;;;;;;;29.67;17.15;;;;;;;;;;4994259;28;20105;-75
2022/12/07 01:00:48;;;;;;;29.30;16.67;;;;;;;;;;4990986;28;20479;-75
2022/12/07 01:03:15;;;;;;;30.48;16.30;;;;;;;;;;4993764;28;20034;-75
2022/12/07 01:05:41;;;;;;;29.80;15.70;;;;;;;;;;4992742;28;20023;-74
2022/12/07 01:08:07;;;;;;;27.48;14.80;;;;;;;;;;4993795;28;20595;-74
2022/12/07 01:10:33;;;;;;;28.02;14.98;;;;;;;;;;4993518;28;20379;-75
2022/12/07 01:12:59;;;;;;;26.58;14.52;;;;;;;;;;4992729;28;20054;-74
2022/12/07 01:15:26;;;;;;;24.98;13.75;;;;;;;;;;4992096;28;20497;-76
2022/12/07 01:17:52;;;;;;;27.88;12.77;;;;;;;;;;4993605;28;20569;-76
2022/12/07 01:20:17;;;;;;;26.60;13.90;;;;;;;;;;4992988;28;20039;-75
2022/12/07 01:22:44;;;;;;;28.02;13.40;;;;;;;;;;4992962;28;20085;-75
2022/12/07 01:25:12;;;;;;;24.38;12.50;;;;;;;;;;4993514;28;20441;-74
2022/12/07 01:27:38;;;;;;;26.17;12.85;;;;;;;;;;4991525;28;20030;-74
2022/12/07 01:30:05;;;;;;;29.13;13.70;;;;;;;;;;4993379;28;20105;-74
2022/12/07 01:32:31;;;;;;;23.45;12.50;;;;;;;;;;4993270;28;20402;-73
2022/12/07 01:34:57;;;;;;;22.48;12.73;;;;;;;;;;4993542;28;20105;-75
2022/12/07 01:37:23;;;;;;;26.60;12.82;;;;;;;;;;4993025;28;20027;-75
2022/12/07 01:39:49;;;;;;;29.80;13.98;;;;;;;;;;4993500;28;20035;-75
2022/12/07 01:42:15;;;;;;;28.95;13.32;;;;;;;;;;4993376;28;20510;-75
2022/12/07 01:45:00;;;;;;;26.13;12.68;;;;;;;;;;4994730;28;20035;-75
2022/12/07 01:47:26;;;;;;;26.98;11.93;;;;;;;;;;4994569;28;20434;-74
2022/12/07 01:49:52;;;;;;;26.20;12.35;;;;;;;;;;4998013;28;20049;-76
2022/12/07 01:52:23;;;;;;;28.50;12.43;;;;;;;;;;4996141;28;20022;-76
2022/12/07 01:54:51;;;;;;;25.65;13.13;;;;;;;;;;4993517;28;20032;-74
2022/12/07 01:57:17;;;;;;;25.27;11.52;;;;;;;;;;4992643;28;20030;-74
2022/12/07 01:59:44;;;;;;;20.35;10.88;;;;;;;;;;4993470;28;20026;-74
2022/12/07 02:02:13;;;;;;;19.17;10.80;;;;;;;;;;4993320;28;20471;-74
2022/12/07 02:04:39;;;;;;;25.55;11.57;;;;;;;;;;4993123;28;20494;-74
2022/12/07 02:07:05;;;;;;;29.30;11.40;;;;;;;;;;4992627;28;20030;-75
2022/12/07 02:09:31;;;;;;;25.40;11.95;;;;;;;;;;4993322;28;20034;-74
2022/12/07 02:11:57;;;;;;;23.15;10.55;;;;;;;;;;4992759;28;20030;-74
2022/12/07 02:14:23;;;;;;;24.00;10.43;;;;;;;;;;4991696;28;20076;-74
2022/12/07 02:17:05;;;;;;;24.35;9.88;;;;;;;;;;4998042;28;20031;-75
2022/12/07 02:20:00;;;;;;;26.52;10.82;;;;;;;;;;4995718;28;20038;-76
2022/12/07 02:22:44;;;;;;;25.13;10.52;;;;;;;;;;4995799;28;20026;-78
2022/12/07 02:25:24;;;;;;;19.10;9.02;;;;;;;;;;5000801;28;20109;-78
2022/12/07 02:28:06;;;;;;;20.95;9.38;;;;;;;;;;5005632;28;20054;-77
2022/12/07 02:30:34;;;;;;;22.10;9.50;;;;;;;;;;5005642;28;20023;-78
2022/12/07 02:33:03;;;;;;;23.52;9.57;;;;;;;;;;5005914;28;20504;-78
2022/12/07 02:35:46;;;;;;;23.50;8.40;;;;;;;;;;5007241;28;20018;-79
2022/12/07 02:38:19;;;;;;;20.95;8.15;;;;;;;;;;5005550;28;20022;-78
2022/12/07 02:40:50;;;;;;;15.15;7.78;;;;;;;;;;5006677;28;20023;-78
2022/12/07 02:43:16;;;;;;;17.75;7.05;;;;;;;;;;5011241;28;20049;-77
2022/12/07 02:45:43;;;;;;;17.35;6.68;;;;;;;;;;5013241;28;20030;-78
2022/12/07 02:48:10;;;;;;;21.02;6.28;;;;;;;;;;5017073;28;20004;-77
2022/12/07 02:50:36;;;;;;;13.13;5.82;;;;;;;;;;5012284;28;20037;-76
2022/12/07 02:53:02;;;;;;;13.73;5.10;;;;;;;;;;5012504;28;20026;-77
2022/12/07 02:55:30;;;;;;;18.77;5.72;;;;;;;;;;5011637;28;20326;-78
2022/12/07 02:58:15;;;;;;;9.50;4.40;;;;;;;;;;5005520;28;20033;-78
2022/12/07 03:00:48;;;;;;;11.20;4.28;;;;;;;;;;5012552;28;20058;-76
2022/12/07 03:03:14;;;;;;;8.98;3.70;;;;;;;;;;5017295;28;20018;-76
2022/12/07 03:05:40;;;;;;;14.95;4.22;;;;;;;;;;5017093;28;20040;-78
2022/12/07 03:08:09;;;;;;;10.68;3.60;;;;;;;;;;5001608;28;20097;-78
2022/12/07 03:10:38;;;;;;;8.27;3.03;;;;;;;;;;5001599;28;20503;-78
2022/12/07 03:13:04;;;;;;;15.15;3.00;;;;;;;;;;5001674;28;20057;-78
2022/12/07 03:15:34;;;;;;;9.00;2.60;;;;;;;;;;5001930;28;20026;-77
2022/12/07 03:18:03;;;;;;;6.38;2.35;;;;;;;;;;4997909;28;20411;-77
2022/12/07 03:20:29;;;;;;;7.47;2.28;;;;;;;;;;4996311;28;20035;-75
2022/12/07 03:22:57;;;;;;;5.85;2.05;;;;;;;;;;4995440;28;20479;-75
2022/12/07 03:25:23;;;;;;;8.18;2.33;;;;;;;;;;4995899;28;20046;-76
2022/12/07 03:27:57;;;;;;;12.70;2.10;;;;;;;;;;5002893;28;20062;-76
2022/12/07 03:30:24;;;;;;;6.65;2.10;;;;;;;;;;5003040;28;20057;-75
2022/12/07 03:32:59;;;;;;;7.65;1.90;;;;;;;;;;5002154;28;20035;-75
2022/12/07 03:35:31;;;;;;;7.63;1.83;;;;;;;;;;5000658;28;20027;-75
2022/12/07 03:38:09;;;;;;;7.40;2.00;;;;;;;;;;4994778;28;20035;-74
2022/12/07 03:40:37;;;;;;;10.25;2.63;;;;;;;;;;4996048;28;20054;-76
2022/12/07 03:43:04;;;;;;;8.75;2.30;;;;;;;;;;4995894;28;20026;-75
2022/12/07 03:45:35;;;;;;;8.52;2.15;;;;;;;;;;4994885;28;20392;-75
2022/12/07 03:48:08;;;;;;;9.93;2.45;;;;;;;;;;5000020;28;20026;-76
2022/12/07 03:50:40;;;;;;;7.97;2.10;;;;;;;;;;5009791;28;20053;-75
2022/12/07 03:53:15;;;;;;;7.75;2.13;;;;;;;;;;5008668;28;20423;-76
2022/12/07 03:55:44;;;;;;;5.68;2.38;;;;;;;;;;4998360;28;20053;-76
2022/12/07 03:58:11;;;;;;;5.30;2.35;;;;;;;;;;4999934;28;20031;-76
2022/12/07 04:00:37;;;;;;;6.10;2.40;;;;;;;;;;4999998;28;20026;-75
2022/12/07 04:03:03;;;;;;;7.68;2.88;;;;;;;;;;4996710;28;20030;-74
2022/12/07 04:05:29;;;;;;;8.23;2.33;;;;;;;;;;4994686;28;20030;-76
2022/12/07 04:07:55;;;;;;;11.15;3.25;;;;;;;;;;4995475;28;20030;-76
2022/12/07 04:10:21;;;;;;;12.15;2.95;;;;;;;;;;5000895;28;20034;-74
2022/12/07 04:12:47;;;;;;;8.85;2.70;;;;;;;;;;5008977;28;20033;-75
2022/12/07 04:15:13;;;;;;;9.55;3.10;;;;;;;;;;5010275;28;20377;-75
2022/12/07 04:17:39;;;;;;;6.63;2.75;;;;;;;;;;5001620;28;20480;-75
2022/12/07 04:20:05;;;;;;;11.00;3.85;;;;;;;;;;4995140;28;20514;-74
2022/12/07 04:22:32;;;;;;;6.35;2.97;;;;;;;;;;4995090;28;20032;-74
2022/12/07 04:24:57;;;;;;;7.28;3.03;;;;;;;;;;4995367;28;20022;-75
2022/12/07 04:27:23;;;;;;;6.20;2.85;;;;;;;;;;4995019;28;20033;-75
2022/12/07 04:29:49;;;;;;;10.02;2.88;;;;;;;;;;5006428;28;20078;-74
2022/12/07 04:32:15;;;;;;;15.45;3.95;;;;;;;;;;5010350;28;20031;-77
2022/12/07 04:34:41;;;;;;;11.75;4.70;;;;;;;;;;4995663;28;20026;-77
2022/12/07 04:37:07;;;;;;;7.65;3.60;;;;;;;;;;4995813;28;20551;-76
2022/12/07 04:39:33;;;;;;;10.43;3.80;;;;;;;;;;4995630;28;20532;-75
2022/12/07 04:42:00;;;;;;;10.38;4.00;;;;;;;;;;4995104;28;20027;-76
2022/12/07 04:44:27;;;;;;;15.35;3.83;;;;;;;;;;4995148;28;20026;-76
2022/12/07 04:46:53;;;;;;;11.98;4.28;;;;;;;;;;4995590;28;20030;-77
2022/12/07 04:49:19;;;;;;;11.55;3.75;;;;;;;;;;4998932;28;20080;-76
2022/12/07 04:51:46;;;;;;;12.13;4.35;;;;;;;;;;5000588;28;20030;-76
2022/12/07 04:54:12;;;;;;;6.70;3.72;;;;;;;;;;5015991;28;20050;-77
2022/12/07 04:56:38;;;;;;;8.75;3.88;;;;;;;;;;5017465;28;20036;-78
2022/12/07 04:59:04;;;;;;;18.98;5.22;;;;;;;;;;5013427;28;20034;-75
2022/12/07 05:01:31;;;;;;;9.15;4.40;;;;;;;;;;5005881;28;20026;-77
2022/12/07 05:03:56;;;;;;;13.73;4.30;;;;;;;;;;4999446;28;20026;-75
2022/12/07 05:06:22;;;;;;;16.80;5.07;;;;;;;;;;4993473;28;20031;-75
2022/12/07 05:08:48;;;;;;;15.43;4.72;;;;;;;;;;4992406;28;20149;-76
2022/12/07 05:11:37;;;;;;;11.43;4.47;;;;;;;;;;4994118;28;20026;-76
2022/12/07 05:14:01;;;;;;;10.98;4.20;;;;;;;;;;4994834;28;20141;-74
2022/12/07 05:16:27;;;;;;;12.30;4.28;;;;;;;;;;4993623;28;20111;-76
2022/12/07 05:18:53;;;;;;;11.05;4.70;;;;;;;;;;5016055;23;20086;-71
2022/12/07 05:21:19;;;;;;;11.43;4.75;;;;;;;;;;4994291;28;20037;-72
2022/12/07 05:23:45;;;;;;;8.40;4.35;;;;;;;;;;4995434;28;20029;-71
2022/12/07 05:26:11;;;;;;;12.15;4.70;;;;;;;;;;4994568;28;20034;-72
2022/12/07 05:28:37;;;;;;;11.60;4.45;;;;;;;;;;4993600;28;20030;-71
2022/12/07 05:31:03;;;;;;;12.45;4.45;;;;;;;;;;4994485;28;20022;-71
2022/12/07 05:33:29;;;;;;;12.02;4.65;;;;;;;;;;4995679;28;20018;-70
2022/12/07 05:35:55;;;;;;;12.20;4.75;;;;;;;;;;4994531;28;20026;-69
2022/12/07 05:38:21;;;;;;;9.57;4.40;;;;;;;;;;4997923;28;20472;-70
2022/12/07 05:40:47;;;;;;;9.48;3.85;;;;;;;;;;5003598;28;20022;-71
2022/12/07 05:43:13;;;;;;;13.50;4.40;;;;;;;;;;5005451;28;20060;-71
2022/12/07 05:45:38;;;;;;;13.25;3.83;;;;;;;;;;5003456;28;20105;-70
2022/12/07 05:48:04;;;;;;;11.85;4.07;;;;;;;;;;4999626;28;20038;-70
2022/12/07 05:50:30;;;;;;;11.27;4.78;;;;;;;;;;4995972;28;20098;-72
2022/12/07 05:52:56;;;;;;;10.63;4.90;;;;;;;;;;4995922;28;20538;-71
2022/12/07 05:55:22;;;;;;;9.07;4.65;;;;;;;;;;4996309;28;20097;-72
2022/12/07 06:00:33;;;;;;;10.65;4.82;;;;;;;;;;5004060;28;20045;-71
2022/12/07 06:02:59;;;;;;;12.85;5.00;;;;;;;;;;5002158;28;20317;-70
2022/12/07 06:05:24;;;;;;;13.10;4.00;;;;;;;;;;5002754;28;20025;-71
2022/12/07 06:07:50;;;;;;;13.90;7.20;;;;;;;;;;5002300;28;20410;-70
2022/12/07 06:10:16;;;;;;;15.90;4.95;;;;;;;;;;4998569;28;20026;-71
2022/12/07 06:12:45;;;;;;;7.82;4.40;;;;;;;;;;4996464;28;20033;-70
2022/12/07 06:15:12;;;;;;;12.98;4.38;;;;;;;;;;4997390;28;20029;-71
2022/12/07 06:17:38;;;;;;;16.52;4.57;;;;;;;;;;4996992;28;20026;-70
2022/12/07 06:20:05;;;;;;;11.32;4.25;;;;;;;;;;4998428;28;20128;-71
2022/12/07 06:22:31;;;;;;;9.82;4.25;;;;;;;;;;4996278;28;20061;-71
2022/12/07 06:24:57;;;;;;;12.52;4.60;;;;;;;;;;4998152;28;20391;-71
2022/12/07 06:27:22;;;;;;;10.98;3.70;;;;;;;;;;5001014;28;20037;-71
2022/12/07 06:29:49;;;;;;;14.45;4.70;;;;;;;;;;5004916;28;20076;-72
2022/12/07 06:32:15;;;;;;;11.57;4.28;;;;;;;;;;4999158;28;20030;-72
2022/12/07 06:34:41;;;;;;;12.65;4.43;;;;;;;;;;5017678;28;20487;-72
2022/12/07 06:37:07;;;;;;;11.80;4.20;;;;;;;;;;4997209;28;20041;-70
2022/12/07 06:39:33;;;;;;;12.15;4.20;;;;;;;;;;4997080;28;20081;-71
2022/12/07 06:41:58;;;;;;;15.93;5.20;;;;;;;;;;4997858;28;20038;-70
2022/12/07 06:44:25;;;;;;;8.10;3.60;;;;;;;;;;4995891;28;20034;-71
2022/12/07 06:46:51;;;;;;;8.73;3.80;;;;;;;;;;4996643;28;20116;-69
2022/12/07 06:49:17;;;;;;;10.80;4.30;;;;;;;;;;4998230;28;20395;-74
2022/12/07 06:51:43;;;;;;;10.73;4.70;;;;;;;;;;4998389;28;20084;-70
2022/12/07 06:54:10;;;;;;;15.50;4.53;;;;;;;;;;4998196;28;20030;-72
2022/12/07 06:56:36;;;;;;;10.43;3.83;;;;;;;;;;4999194;28;20038;-71
2022/12/07 06:59:02;;;;;;;15.48;3.88;;;;;;;;;;4998175;28;20046;-71
2022/12/07 07:01:28;;;;;;;10.95;3.70;;;;;;;;;;4997982;28;20065;-71
2022/12/07 07:03:54;;;;;;;8.75;3.30;;;;;;;;;;4998104;28;20037;-70
2022/12/07 07:06:20;;;;;;;6.68;3.22;;;;;;;;;;4997737;28;20041;-71
2022/12/07 07:08:46;;;;;;;14.57;3.92;;;;;;;;;;4999028;28;20023;-72
2022/12/07 07:11:12;;;;;;;11.00;3.83;;;;;;;;;;4997129;28;20058;-72
2022/12/07 07:13:38;;;;;;;13.65;4.20;;;;;;;;;;4996553;28;20022;-72
2022/12/07 07:16:05;;;;;;;7.68;3.15;;;;;;;;;;4996456;28;20081;-73
2022/12/07 07:18:31;;;;;;;20.08;3.75;;;;;;;;;;4997031;28;20041;-71
2022/12/07 07:20:57;;;;;;;14.60;3.63;;;;;;;;;;4996973;28;20078;-72
2022/12/07 07:23:24;;;;;;;13.77;3.20;;;;;;;;;;4996262;28;20518;-71
2022/12/07 07:25:50;;;;;;;10.45;2.83;;;;;;;;;;4996073;28;20038;-72
2022/12/07 07:28:16;;;;;;;7.55;2.85;;;;;;;;;;4997464;28;20426;-73
2022/12/07 07:30:42;;;;;;;20.40;3.40;;;;;;;;;;4997938;28;20480;-72
2022/12/07 07:33:09;;;;;;;8.77;2.90;;;;;;;;;;4999974;28;20026;-71
2022/12/07 07:35:35;;;;;;;8.80;2.65;;;;;;;;;;5002127;28;20030;-71
2022/12/07 07:38:01;;;;;;;13.55;2.40;;;;;;;;;;4996905;28;20387;-71
2022/12/07 07:40:31;;;;;;;7.43;2.40;;;;;;;;;;4995286;28;20570;-72
2022/12/07 07:42:57;;;;;;;6.53;2.45;;;;;;;;;;4996482;28;20039;-72
2022/12/07 07:45:24;;;;;;;9.45;2.53;;;;;;;;;;4995094;28;20096;-74
2022/12/07 07:47:50;;;;;;;8.00;2.47;;;;;;;;;;5004172;28;20022;-74
2022/12/07 07:50:17;;;;;;;8.23;2.45;;;;;;;;;;5007095;28;20029;-73
2022/12/07 07:52:43;;;;;;;10.57;2.88;;;;;;;;;;5007354;28;20033;-72
2022/12/07 07:55:09;;;;;;;13.13;3.30;;;;;;;;;;5003127;28;20033;-73
2022/12/07 07:57:39;;;;;;;14.63;6.05;;;;;;;;;;5001713;28;20058;-75
2022/12/07 08:00:06;;;;;;;11.18;4.68;;;;;;;;;;5003778;28;20034;-73
2022/12/07 08:02:32;;;;;;;13.50;4.60;;;;;;;;;;5006547;28;20094;-73
2022/12/07 08:04:57;;;;;;;20.20;6.38;;;;;;;;;;5006814;28;20088;-74
2022/12/07 08:07:23;;;;;;;13.95;5.05;;;;;;;;;;5008133;28;20057;-75
2022/12/07 08:09:49;;;;;;;13.20;4.68;;;;;;;;;;5009204;28;20027;-72
2022/12/07 08:12:15;;;;;;;10.82;4.03;;;;;;;;;;5006387;28;20033;-73
2022/12/07 08:14:41;;;;;;;7.07;2.25;;;;;;;;;;4997777;28;20044;-73
2022/12/07 08:17:07;;;;;;;9.90;2.10;;;;;;;;;;4996190;28;20412;-73
2022/12/07 08:19:34;;;;;;;8.55;2.40;;;;;;;;;;4996327;28;20126;-72
2022/12/07 08:22:00;;;;;;;10.27;2.33;;;;;;;;;;4994720;28;20033;-73
2022/12/07 08:24:26;;;;;;;9.65;2.20;;;;;;;;;;4996263;28;20030;-72
2022/12/07 08:26:52;;;;;;;19.77;2.35;;;;;;;;;;4995310;28;20030;-74
2022/12/07 08:29:18;;;;;;;11.30;2.50;;;;;;;;;;4996235;28;20444;-73
2022/12/07 08:31:44;;;;;;;11.75;2.53;;;;;;;;;;4997532;28;20027;-72
2022/12/07 08:34:11;;;;;;;10.65;2.00;;;;;;;;;;4996413;28;20029;-73
2022/12/07 08:36:37;;;;;;;6.88;1.90;;;;;;;;;;4995689;28;20090;-73
2022/12/07 08:39:03;;;;;;;7.63;2.28;;;;;;;;;;4999946;28;20069;-72
2022/12/07 08:41:30;;;;;;;21.42;7.03;;;;;;;;;;5000680;28;20037;-73
2022/12/07 08:43:56;;;;;;;15.10;3.60;;;;;;;;;;4996435;28;20435;-72
2022/12/07 08:46:25;;;;;;;14.95;2.85;;;;;;;;;;4994745;28;20034;-73
2022/12/07 08:48:57;;;;;;;12.88;2.88;;;;;;;;;;4995649;28;20026;-72
2022/12/07 08:51:24;;;;;;;14.75;2.53;;;;;;;;;;4995538;28;20624;-72
2022/12/07 08:53:51;;;;;;;4.70;2.63;;;;;;;;;;4995543;28;20018;-73
2022/12/07 08:56:17;;;;;;;15.05;2.70;;;;;;;;;;4993756;28;20034;-72
2022/12/07 08:58:44;;;;;;;7.18;2.35;;;;;;;;;;4995806;28;20049;-74
2022/12/07 09:01:10;;;;;;;6.65;2.35;;;;;;;;;;4994298;28;20034;-75
2022/12/07 09:03:36;;;;;;;6.88;2.10;;;;;;;;;;4994288;28;20049;-72
2022/12/07 09:06:02;;;;;;;10.23;2.28;;;;;;;;;;4997679;28;20423;-73
2022/12/07 09:08:33;;;;;;;12.23;2.65;;;;;;;;;;4996200;28;20061;-72
2022/12/07 09:10:59;;;;;;;16.45;2.92;;;;;;;;;;4994993;28;20023;-73
2022/12/07 09:13:25;;;;;;;9.75;2.55;;;;;;;;;;4995817;28;20037;-72
2022/12/07 09:15:51;;;;;;;8.55;2.50;;;;;;;;;;4996093;28;20030;-72
2022/12/07 09:18:17;;;;;;;19.10;2.80;;;;;;;;;;4996333;28;20026;-72
2022/12/07 09:20:43;;;;;;;13.15;2.20;;;;;;;;;;4996296;28;20110;-76
2022/12/07 09:23:09;;;;;;;16.65;3.85;;;;;;;;;;4996468;28;20026;-73
2022/12/07 09:25:35;;;;;;;16.85;2.30;;;;;;;;;;4997436;28;20361;-72
2022/12/07 09:28:01;;;;;;;23.95;9.07;;;;;;;;;;4996461;28;20030;-72
2022/12/07 09:30:28;;;;;;;19.85;3.28;;;;;;;;;;4997647;28;20077;-72
2022/12/07 09:32:54;;;;;;;10.20;3.25;;;;;;;;;;4996614;28;20122;-73
2022/12/07 09:35:20;;;;;;;20.23;3.83;;;;;;;;;;4995034;28;20030;-72
2022/12/07 09:37:46;;;;;;;13.77;2.97;;;;;;;;;;4998995;28;20054;-73
2022/12/07 09:40:13;;;;;;;16.65;2.38;;;;;;;;;;5000201;28;20026;-73
2022/12/07 09:42:44;;;;;;;15.70;2.70;;;;;;;;;;4999382;28;20098;-73
2022/12/07 09:45:19;;;;;;;23.42;2.70;;;;;;;;;;4995028;28;20029;-74
2022/12/07 09:47:45;;;;;;;13.82;3.05;;;;;;;;;;4995181;28;20035;-73
2022/12/07 09:50:16;;;;;;;28.08;13.48;;;;;;;;;;4994474;28;20483;-73
2022/12/07 09:52:43;;;;;;;10.45;2.47;;;;;;;;;;4995672;28;20081;-73
2022/12/07 09:55:14;;;;;;;13.63;2.30;;;;;;;;;;4995829;28;20050;-73
2022/12/07 09:57:40;;;;;;;19.67;2.47;;;;;;;;;;4994608;28;20077;-72
2022/12/07 10:00:14;;;;;;;17.85;2.42;;;;;;;;;;4997539;28;20081;-75
2022/12/07 10:02:45;;;;;;;14.97;2.20;;;;;;;;;;5004390;28;20037;-77
2022/12/07 10:05:14;;;;;;;15.13;2.40;;;;;;;;;;5015796;28;20281;-73
2022/12/07 10:07:40;;;;;;;15.15;2.35;;;;;;;;;;5016803;28;20019;-74
2022/12/07 10:10:25;;;;;;;23.58;2.90;;;;;;;;;;5018508;28;20042;-75
2022/12/07 10:12:55;;;;;;;10.15;2.15;;;;;;;;;;5017688;28;20030;-72
2022/12/07 10:15:21;;;;;;;22.77;2.55;;;;;;;;;;4996577;28;20046;-74
2022/12/07 10:17:52;;;;;;;11.48;2.15;;;;;;;;;;4994374;28;20096;-73
2022/12/07 10:20:18;;;;;;;9.98;2.10;;;;;;;;;;4994781;28;20034;-72
2022/12/07 10:22:57;;;;;;;17.35;2.35;;;;;;;;;;4994505;28;20023;-74
2022/12/07 10:25:25;;;;;;;15.30;2.00;;;;;;;;;;4996685;28;20408;-74
2022/12/07 10:28:02;;;;;;;15.00;3.70;;;;;;;;;;4998665;28;20381;-74
2022/12/07 10:30:28;;;;;;;10.80;2.67;;;;;;;;;;5006965;28;20030;-75
2022/12/07 10:32:54;;;;;;;12.52;1.70;;;;;;;;;;4999653;28;20061;-74
2022/12/07 10:35:28;;;;;;;18.63;2.20;;;;;;;;;;4997727;28;20023;-74
2022/12/07 10:37:55;;;;;;;10.38;1.80;;;;;;;;;;4994107;28;20033;-75
2022/12/07 10:40:30;;;;;;;14.05;2.03;;;;;;;;;;4994603;28;20514;-77
2022/12/07 10:43:01;;;;;;;13.38;2.25;;;;;;;;;;4996107;28;20026;-73
2022/12/07 10:45:27;;;;;;;7.78;1.80;;;;;;;;;;4995752;28;20030;-74
2022/12/07 10:48:14;;;;;;;16.63;2.78;;;;;;;;;;5000205;28;20748;-74
2022/12/07 10:50:40;;;;;;;19.58;2.15;;;;;;;;;;5003977;28;20093;-73
2022/12/07 10:53:13;;;;;;;13.15;2.30;;;;;;;;;;5007293;28;20034;-74
2022/12/07 10:56:03;;;;;;;9.13;1.95;;;;;;;;;;5014030;28;20018;-74
2022/12/07 10:58:32;;;;;;;14.93;2.33;;;;;;;;;;5003196;28;20039;-74
2022/12/07 11:01:14;;;;;;;14.43;2.25;;;;;;;;;;4997540;28;20018;-73
2022/12/07 11:03:42;;;;;;;15.68;2.05;;;;;;;;;;4997576;28;20026;-73
2022/12/07 11:06:22;;;;;;;16.95;3.17;;;;;;;;;;4998406;28;20109;-74
2022/12/07 11:08:58;;;;;;;9.25;2.00;;;;;;;;;;5001412;28;20023;-74
2022/12/07 11:11:34;;;;;;;17.15;2.00;;;;;;;;;;5010750;28;20019;-74
2022/12/07 11:14:05;;;;;;;14.75;3.33;;;;;;;;;;5009387;28;20085;-74
2022/12/07 11:16:53;;;;;;;8.57;2.00;;;;;;;;;;5000920;28;20088;-74
2022/12/07 11:19:38;;;;;;;26.13;5.00;;;;;;;;;;5014346;23;20038;-73
2022/12/07 11:22:16;;;;;;;10.98;1.80;;;;;;;;;;4998978;28;20133;-73
2022/12/07 11:25:01;;;;;;;12.32;2.47;;;;;;;;;;5001374;28;20027;-72
2022/12/07 11:27:27;;;;;;;13.13;2.30;;;;;;;;;;4998202;28;20448;-72
2022/12/07 11:29:59;;;;;;;16.90;2.92;;;;;;;;;;4996944;28;20034;-73
2022/12/07 11:32:44;;;;;;;18.73;4.18;;;;;;;;;;4999947;28;20029;-72
2022/12/07 11:35:31;;;;;;;15.65;3.97;;;;;;;;;;4998552;28;20066;-73
2022/12/07 11:38:17;;;;;;;11.80;2.28;;;;;;;;;;4997906;28;20054;-72
2022/12/07 11:40:49;;;;;;;16.50;4.45;;;;;;;;;;4998757;28;20071;-74
2022/12/07 11:43:15;;;;;;;16.85;2.85;;;;;;;;;;4999256;28;20069;-72
2022/12/07 11:45:47;;;;;;;15.10;2.85;;;;;;;;;;4997708;28;20037;-73
2022/12/07 11:48:13;;;;;;;13.82;2.63;;;;;;;;;;4998803;28;20109;-74
2022/12/07 11:50:50;;;;;;;8.98;2.30;;;;;;;;;;5000368;28;20058;-74
2022/12/07 11:53:19;;;;;;;13.93;2.53;;;;;;;;;;5002774;28;20026;-74
2022/12/07 11:55:50;;;;;;;11.43;2.50;;;;;;;;;;5001346;28;20029;-74
2022/12/07 11:58:35;;;;;;;14.35;2.90;;;;;;;;;;5005447;28;20014;-73
2022/12/07 12:01:07;;;;;;;16.15;3.08;;;;;;;;;;4997787;28;20026;-72
2022/12/07 12:03:36;;;;;;;14.98;2.38;;;;;;;;;;4997311;28;20022;-72
2022/12/07 12:06:02;;;;;;;10.57;2.30;;;;;;;;;;4996700;28;20054;-72
2022/12/07 12:08:29;;;;;;;11.02;2.60;;;;;;;;;;4997497;28;20476;-73
2022/12/07 12:11:03;;;;;;;17.77;2.55;;;;;;;;;;4998827;28;20053;-72
2022/12/07 12:13:28;;;;;;;11.35;2.67;;;;;;;;;;4998652;28;20121;-73
2022/12/07 12:16:11;;;;;;;17.02;2.65;;;;;;;;;;4998278;28;20066;-74
2022/12/07 12:18:45;;;;;;;15.10;2.40;;;;;;;;;;4997401;28;20049;-72
2022/12/07 12:21:15;;;;;;;18.30;3.33;;;;;;;;;;4998087;28;20031;-73
2022/12/07 12:23:44;;;;;;;13.02;2.95;;;;;;;;;;4998622;28;20026;-73
2022/12/07 12:26:18;;;;;;;16.52;3.22;;;;;;;;;;4997325;28;20034;-72
2022/12/07 12:29:01;;;;;;;11.52;2.78;;;;;;;;;;4997132;28;20058;-73
2022/12/07 12:31:30;;;;;;;17.70;2.83;;;;;;;;;;4996968;28;20530;-73
2022/12/07 12:33:58;;;;;;;16.45;2.20;;;;;;;;;;4995378;28;20026;-73
2022/12/07 12:36:45;;;;;;;12.45;2.40;;;;;;;;;;4994618;28;20031;-74
2022/12/07 12:39:14;;;;;;;15.00;2.55;;;;;;;;;;4994946;28;20026;-73
2022/12/07 12:44:15;;;;;;;9.45;2.13;;;;;;;;;;4994987;28;20057;-73
2022/12/07 12:46:47;;;;;;;16.33;3.35;;;;;;;;;;4993425;28;20452;-74
2022/12/07 12:49:16;;;;;;;13.60;2.72;;;;;;;;;;4995313;28;20092;-73
2022/12/07 12:51:46;;;;;;;33.58;13.60;;;;;;;;;;4994119;28;20026;-74
2022/12/07 12:54:20;;;;;;;13.30;2.75;;;;;;;;;;4994701;28;20101;-73
2022/12/07 12:56:54;;;;;;;15.10;2.53;;;;;;;;;;4993280;28;20041;-73
2022/12/07 12:59:23;;;;;;;16.25;2.58;;;;;;;;;;4994292;28;20213;-73
2022/12/07 13:01:51;;;;;;;10.60;2.25;;;;;;;;;;4994018;28;20061;-75
2022/12/07 13:04:38;;;;;;;12.63;2.55;;;;;;;;;;4994821;28;20026;-72
2022/12/07 13:07:05;;;;;;;13.70;2.17;;;;;;;;;;4994849;28;20113;-74
2022/12/07 13:09:33;;;;;;;15.93;1.95;;;;;;;;;;4994305;28;20102;-72
2022/12/07 13:12:11;;;;;;;14.23;2.20;;;;;;;;;;4995227;28;20026;-73
2022/12/07 13:14:40;;;;;;;19.27;2.40;;;;;;;;;;4993588;28;20566;-74
2022/12/07 13:17:29;;;;;;;12.75;2.50;;;;;;;;;;4994971;28;20057;-73
2022/12/07 13:19:56;;;;;;;21.30;3.20;;;;;;;;;;4995081;28;20073;-74
2022/12/07 13:22:31;;;;;;;13.85;2.30;;;;;;;;;;4998786;28;20050;-75
2022/12/07 13:25:06;;;;;;;13.00;1.98;;;;;;;;;;4997573;28;20039;-71
2022/12/07 13:27:32;;;;;;;17.55;2.40;;;;;;;;;;4993315;28;20046;-75
2022/12/07 13:29:59;;;;;;;7.30;1.60;;;;;;;;;;4994760;28;20029;-76
2022/12/07 13:32:26;;;;;;;10.82;2.15;;;;;;;;;;4995837;28;20026;-72
2022/12/07 13:34:52;;;;;;;14.27;2.72;;;;;;;;;;4994677;28;20046;-73
2022/12/07 13:37:18;;;;;;;10.10;1.73;;;;;;;;;;4993503;28;20058;-71
2022/12/07 13:39:54;;;;;;;12.20;1.83;;;;;;;;;;4993274;28;20030;-71
2022/12/07 13:42:23;;;;;;;10.43;1.77;;;;;;;;;;4994853;28;20423;-72
2022/12/07 13:44:49;;;;;;;15.85;1.77;;;;;;;;;;4992867;28;20038;-71
2022/12/07 13:47:22;;;;;;;10.63;1.52;;;;;;;;;;4992228;28;20026;-72
2022/12/07 13:49:49;;;;;;;16.83;2.28;;;;;;;;;;4992907;28;20057;-72
2022/12/07 13:52:17;;;;;;;13.05;2.55;;;;;;;;;;4992467;28;20356;-72
2022/12/07 13:54:56;;;;;;;12.25;1.70;;;;;;;;;;4993632;28;20019;-71
2022/12/07 13:57:22;;;;;;;13.98;1.70;;;;;;;;;;4993448;28;20492;-76
2022/12/07 13:59:48;;;;;;;9.75;1.80;;;;;;;;;;4993949;28;20121;-72
2022/12/07 14:02:22;;;;;;;10.65;1.52;;;;;;;;;;4994747;28;20097;-78
2022/12/07 14:04:49;;;;;;;8.35;1.60;;;;;;;;;;4995277;28;20105;-77
2022/12/07 14:07:25;;;;;;;13.70;1.80;;;;;;;;;;4995148;28;20030;-76
2022/12/07 14:09:56;;;;;;;12.95;1.98;;;;;;;;;;4995776;28;20122;-78
2022/12/07 14:12:23;;;;;;;12.75;2.05;;;;;;;;;;4995231;28;20026;-77
2022/12/07 14:14:49;;;;;;;16.40;2.05;;;;;;;;;;5000270;28;20086;-78
2022/12/07 14:17:25;;;;;;;8.95;1.60;;;;;;;;;;4999625;28;20031;-81
2022/12/07 14:20:31;;;;;;;13.20;1.70;;;;;;;;;;4996888;28;20077;-75
2022/12/07 14:22:57;;;;;;;11.10;1.70;;;;;;;;;;5005504;28;20030;-75
2022/12/07 14:25:24;;;;;;;8.88;2.10;;;;;;;;;;5003753;28;20030;-75
2022/12/07 14:27:50;;;;;;;16.02;6.57;;;;;;;;;;5008095;28;20041;-79
2022/12/07 14:30:17;;;;;;;13.18;3.75;;;;;;;;;;5004730;28;20089;-76
2022/12/07 14:32:48;;;;;;;8.50;1.67;;;;;;;;;;5002184;28;20042;-75
2022/12/07 14:35:14;;;;;;;10.98;2.08;;;;;;;;;;5001099;28;20022;-75
2022/12/07 14:37:41;;;;;;;15.00;1.90;;;;;;;;;;4999262;28;20030;-75
2022/12/07 14:40:07;;;;;;;9.43;1.80;;;;;;;;;;4998370;28;20030;-74
2022/12/07 14:42:34;;;;;;;9.05;2.08;;;;;;;;;;4995487;28;20038;-73
2022/12/07 14:45:00;;;;;;;9.65;2.20;;;;;;;;;;5004769;28;20042;-80
2022/12/07 14:47:26;;;;;;;10.75;2.70;;;;;;;;;;5016808;28;20077;-75